createdAt,value
2018-11-13T00:00:40.088Z,1000.22
2018-11-13T00:01:40.099Z,1000.19
2018-11-13T00:02:40.063Z,1000.17
2018-11-13T00:03:40.052Z,1000.18
2018-11-13T00:04:40.042Z,1000.20
2018-11-13T00:05:40.052Z,1000.23
2018-11-13T00:06:40.014Z,1000.30
2018-11-13T00:07:40.010Z,1000.32
2018-11-13T00:08:39.994Z,1000.33
2018-11-13T00:09:39.985Z,1000.33
2018-11-13T00:10:39.993Z,1000.32
2018-11-13T00:11:39.952Z,1000.34
2018-11-13T00:12:39.951Z,1000.33
2018-11-13T00:13:39.968Z,1000.35
2018-11-13T00:14:39.928Z,1000.40
2018-11-13T00:15:39.916Z,1000.42
2018-11-13T00:16:39.929Z,1000.47
2018-11-13T00:17:39.898Z,1000.48
2018-11-13T00:18:39.882Z,1000.44
2018-11-13T00:19:39.871Z,1000.49
2018-11-13T00:20:39.882Z,1000.50
2018-11-13T00:21:39.877Z,1000.51
2018-11-13T00:22:39.839Z,1000.45
2018-11-13T00:23:39.826Z,1000.38
2018-11-13T00:24:39.818Z,1000.43
2018-11-13T00:25:39.830Z,1000.41
2018-11-13T00:26:39.799Z,1000.48
2018-11-13T00:27:39.858Z,1000.46
2018-11-13T00:28:39.770Z,1000.47
2018-11-13T00:29:39.759Z,1000.53
2018-11-13T00:30:39.776Z,1000.56
2018-11-13T00:31:39.762Z,1000.61
2018-11-13T00:32:39.748Z,1000.66
2018-11-13T00:33:39.712Z,1000.62
2018-11-13T00:34:39.701Z,1000.60
2018-11-13T00:35:39.715Z,1000.62
2018-11-13T00:36:39.679Z,1000.59
2018-11-13T00:37:39.667Z,1000.60
2018-11-13T00:38:39.704Z,1000.63
2018-11-13T00:39:39.651Z,1000.65
2018-11-13T00:40:39.637Z,1000.65
2018-11-13T00:41:39.624Z,1000.68
2018-11-13T00:42:39.611Z,1000.65
2018-11-13T00:43:39.629Z,1000.67
2018-11-13T00:44:39.615Z,1000.67
2018-11-13T00:45:39.671Z,1000.69
2018-11-13T00:46:39.565Z,1000.68
2018-11-13T00:47:39.545Z,1000.70
2018-11-13T00:48:39.570Z,1000.72
2018-11-13T00:49:39.532Z,1000.70
2018-11-13T00:50:39.542Z,1000.77
2018-11-13T00:51:39.513Z,1000.90
2018-11-13T00:52:39.502Z,1000.95
2018-11-13T00:53:39.521Z,1000.97
2018-11-13T00:54:39.477Z,1000.91
2018-11-13T00:55:39.464Z,1000.94
2018-11-13T00:56:39.454Z,1000.87
2018-11-13T00:57:39.446Z,1000.93
2018-11-13T00:58:39.454Z,1000.94
2018-11-13T00:59:39.419Z,1000.92
2018-11-13T01:00:39.426Z,1000.88
2018-11-13T01:01:39.397Z,1000.86
2018-11-13T01:02:39.395Z,1000.86
2018-11-13T01:03:39.397Z,1000.80
2018-11-13T01:04:39.361Z,1000.79
2018-11-13T01:05:39.369Z,1000.79
2018-11-13T01:06:39.342Z,1000.75
2018-11-13T01:07:39.361Z,1000.76
2018-11-13T01:08:39.346Z,1000.77
2018-11-13T01:09:39.305Z,1000.74
2018-11-13T01:10:39.331Z,1000.70
2018-11-13T01:11:39.291Z,1000.68
2018-11-13T01:12:39.276Z,1000.72
2018-11-13T01:13:39.263Z,1000.72
2018-11-13T01:14:39.257Z,1000.71
2018-11-13T01:15:39.266Z,1000.61
2018-11-13T01:16:39.230Z,1000.61
2018-11-13T01:17:39.222Z,1000.56
2018-11-13T01:18:39.276Z,1000.52
2018-11-13T01:19:39.199Z,1000.54
2018-11-13T01:20:39.186Z,1000.50
2018-11-13T01:21:39.205Z,1000.52
2018-11-13T01:22:39.163Z,1000.48
2018-11-13T01:23:39.166Z,1000.47
2018-11-13T01:24:39.165Z,1000.44
2018-11-13T01:25:39.130Z,1000.38
2018-11-13T01:26:39.118Z,1000.37
2018-11-13T01:27:39.108Z,1000.36
2018-11-13T01:28:39.131Z,1000.34
2018-11-13T01:29:39.085Z,1000.40
2018-11-13T01:30:39.077Z,1000.34
2018-11-13T01:31:39.061Z,1000.37
2018-11-13T01:32:39.058Z,1000.41
2018-11-13T01:33:39.064Z,1000.41
2018-11-13T01:34:39.026Z,1000.42
2018-11-13T01:35:39.017Z,1000.40
2018-11-13T01:36:39.003Z,1000.35
2018-11-13T01:37:38.993Z,1000.39
2018-11-13T01:38:39.010Z,1000.37
2018-11-13T01:39:38.978Z,1000.39
2018-11-13T01:40:38.990Z,1000.41
2018-11-13T01:41:38.991Z,1000.46
2018-11-13T01:42:38.935Z,1000.52
2018-11-13T01:43:38.960Z,1000.54
2018-11-13T01:44:38.920Z,1000.56
2018-11-13T01:45:38.929Z,1000.59
2018-11-13T01:46:38.893Z,1000.57
2018-11-13T01:47:38.883Z,1000.63
2018-11-13T01:48:38.890Z,1000.63
2018-11-13T01:49:39.086Z,1000.65
2018-11-13T01:50:38.868Z,1000.65
2018-11-13T01:51:38.839Z,1000.59
2018-11-13T01:52:38.823Z,1000.57
2018-11-13T01:53:38.838Z,1000.48
2018-11-13T01:54:38.825Z,1000.51
2018-11-13T01:55:38.789Z,1000.56
2018-11-13T01:56:38.778Z,1000.56
2018-11-13T01:57:38.773Z,1000.54
2018-11-13T01:58:38.756Z,1000.58
2018-11-13T01:59:38.759Z,1000.59
2018-11-13T02:00:38.757Z,1000.63
2018-11-13T02:01:38.731Z,1000.62
2018-11-13T02:02:38.716Z,1000.63
2018-11-13T02:03:38.702Z,1000.68
2018-11-13T02:04:38.697Z,1000.73
2018-11-13T02:05:38.709Z,1000.75
2018-11-13T02:06:38.678Z,1000.74
2018-11-13T02:07:38.668Z,1000.73
2018-11-13T02:08:38.647Z,1000.74
2018-11-13T02:09:38.633Z,1000.70
2018-11-13T02:10:38.704Z,1000.66
2018-11-13T02:11:38.611Z,1000.63
2018-11-13T02:12:38.600Z,1000.63
2018-11-13T02:13:38.597Z,1000.61
2018-11-13T02:14:38.611Z,1000.69
2018-11-13T02:15:38.588Z,1000.78
2018-11-13T02:16:38.562Z,1000.84
2018-11-13T02:17:38.566Z,1000.90
2018-11-13T02:18:38.535Z,1000.93
2018-11-13T02:19:38.524Z,1000.91
2018-11-13T02:20:38.512Z,1000.96
2018-11-13T02:21:38.527Z,1000.99
2018-11-13T02:22:38.491Z,1000.97
2018-11-13T02:23:38.483Z,1001.00
2018-11-13T02:24:38.470Z,1001.00
2018-11-13T02:25:38.455Z,1001.00
2018-11-13T02:26:38.468Z,1000.99
2018-11-13T02:27:38.432Z,1001.00
2018-11-13T02:28:38.424Z,1000.92
2018-11-13T02:29:38.441Z,1000.93
2018-11-13T02:30:38.402Z,1000.90
2018-11-13T02:31:38.387Z,1000.87
2018-11-13T02:32:38.377Z,1000.84
2018-11-13T02:33:38.367Z,1000.82
2018-11-13T02:34:38.381Z,1000.80
2018-11-13T02:35:38.491Z,1000.81
2018-11-13T02:36:38.357Z,1000.82
2018-11-13T02:37:38.319Z,1000.80
2018-11-13T02:38:38.336Z,1000.81
2018-11-13T02:39:38.296Z,1000.79
2018-11-13T02:40:38.287Z,1000.75
2018-11-13T02:41:38.274Z,1000.76
2018-11-13T02:42:38.266Z,1000.70
2018-11-13T02:43:38.278Z,1000.71
2018-11-13T02:44:38.240Z,1000.69
2018-11-13T02:45:38.231Z,1000.69
2018-11-13T02:46:38.219Z,1000.66
2018-11-13T02:47:38.208Z,1000.62
2018-11-13T02:48:38.224Z,1000.59
2018-11-13T02:49:38.438Z,1000.62
2018-11-13T02:50:38.174Z,1000.60
2018-11-13T02:51:38.227Z,1000.57
2018-11-13T02:52:38.152Z,1000.55
2018-11-13T02:53:38.163Z,1000.58
2018-11-13T02:54:38.119Z,1000.62
2018-11-13T02:55:38.113Z,1000.62
2018-11-13T02:56:38.108Z,1000.63
2018-11-13T02:57:38.094Z,1000.60
2018-11-13T02:58:38.115Z,1000.62
2018-11-13T02:59:38.076Z,1000.64
2018-11-13T03:00:38.062Z,1000.62
2018-11-13T03:01:38.054Z,1000.62
2018-11-13T03:02:38.056Z,1000.59
2018-11-13T03:03:38.046Z,1000.62
2018-11-13T03:04:38.040Z,1000.60
2018-11-13T03:05:38.010Z,1000.61
2018-11-13T03:06:37.992Z,1000.64
2018-11-13T03:07:37.984Z,1000.66
2018-11-13T03:08:37.973Z,1000.64
2018-11-13T03:09:37.985Z,1000.67
2018-11-13T03:10:37.968Z,1000.73
2018-11-13T03:11:37.964Z,1000.73
2018-11-13T03:12:37.932Z,1000.74
2018-11-13T03:13:37.964Z,1000.81
2018-11-13T03:14:37.901Z,1000.78
2018-11-13T03:15:37.909Z,1000.82
2018-11-13T03:16:37.896Z,1000.79
2018-11-13T03:17:37.872Z,1000.80
2018-11-13T03:18:37.883Z,1000.78
2018-11-13T03:19:37.875Z,1000.81
2018-11-13T03:20:37.849Z,1000.88
2018-11-13T03:21:37.827Z,1000.89
2018-11-13T03:22:37.818Z,1000.92
2018-11-13T03:23:37.833Z,1000.89
2018-11-13T03:24:37.792Z,1000.89
2018-11-13T03:25:37.785Z,1000.85
2018-11-13T03:26:37.775Z,1000.87
2018-11-13T03:27:37.760Z,1000.87
2018-11-13T03:28:37.782Z,1000.85
2018-11-13T03:29:37.739Z,1000.84
2018-11-13T03:30:37.728Z,1000.85
2018-11-13T03:31:37.899Z,1000.84
2018-11-13T03:32:37.704Z,1000.77
2018-11-13T03:33:37.718Z,1000.73
2018-11-13T03:34:37.681Z,1000.69
2018-11-13T03:35:37.667Z,1000.67
2018-11-13T03:36:37.662Z,1000.67
2018-11-13T03:37:37.649Z,1000.65
2018-11-13T03:38:37.649Z,1000.58
2018-11-13T03:39:37.623Z,1000.62
2018-11-13T03:40:37.639Z,1000.61
2018-11-13T03:41:37.601Z,1000.63
2018-11-13T03:42:37.590Z,1000.65
2018-11-13T03:43:37.589Z,1000.58
2018-11-13T03:44:37.560Z,1000.60
2018-11-13T03:45:37.572Z,1000.61
2018-11-13T03:46:37.542Z,1000.59
2018-11-13T03:47:37.532Z,1000.58
2018-11-13T03:48:37.559Z,1000.60
2018-11-13T03:49:37.513Z,1000.58
2018-11-13T03:50:37.504Z,1000.58
2018-11-13T03:51:37.500Z,1000.51
2018-11-13T03:52:37.478Z,1000.51
2018-11-13T03:53:37.487Z,1000.51
2018-11-13T03:54:37.484Z,1000.46
2018-11-13T03:55:37.445Z,1000.50
2018-11-13T03:56:37.459Z,1000.50
2018-11-13T03:57:37.425Z,1000.52
2018-11-13T03:58:37.439Z,1000.51
2018-11-13T03:59:37.408Z,1000.52
2018-11-13T04:00:37.415Z,1000.60
2018-11-13T04:01:37.381Z,1000.66
2018-11-13T04:02:37.368Z,1000.70
2018-11-13T04:03:37.368Z,1000.70
2018-11-13T04:04:37.341Z,1000.71
2018-11-13T04:05:37.332Z,1000.74
2018-11-13T04:06:37.321Z,1000.76
2018-11-13T04:07:37.314Z,1000.80
2018-11-13T04:08:37.325Z,1000.73
2018-11-13T04:09:37.312Z,1000.73
2018-11-13T04:10:37.277Z,1000.70
2018-11-13T04:11:37.265Z,1000.66
2018-11-13T04:12:37.254Z,1000.66
2018-11-13T04:13:37.245Z,1000.73
2018-11-13T04:14:37.257Z,1000.71
2018-11-13T04:15:37.223Z,1000.73
2018-11-13T04:16:37.209Z,1000.68
2018-11-13T04:17:37.203Z,1000.64
2018-11-13T04:18:37.186Z,1000.63
2018-11-13T04:19:37.214Z,1000.65
2018-11-13T04:20:37.164Z,1000.67
2018-11-13T04:21:37.155Z,1000.68
2018-11-13T04:22:37.143Z,1000.67
2018-11-13T04:23:37.130Z,1000.68
2018-11-13T04:24:37.148Z,1000.67
2018-11-13T04:25:37.101Z,1000.61
2018-11-13T04:26:37.122Z,1000.60
2018-11-13T04:27:37.084Z,1000.59
2018-11-13T04:28:37.099Z,1000.56
2018-11-13T04:29:37.066Z,1000.57
2018-11-13T04:30:37.117Z,1000.58
2018-11-13T04:31:37.043Z,1000.64
2018-11-13T04:32:37.036Z,1000.63
2018-11-13T04:33:37.039Z,1000.65
2018-11-13T04:34:37.010Z,1000.64
2018-11-13T04:35:37.005Z,1000.61
2018-11-13T04:36:36.986Z,1000.65
2018-11-13T04:37:36.973Z,1000.63
2018-11-13T04:38:36.985Z,1000.67
2018-11-13T04:39:36.950Z,1000.65
2018-11-13T04:40:36.948Z,1000.69
2018-11-13T04:41:36.932Z,1000.71
2018-11-13T04:42:36.918Z,1000.78
2018-11-13T04:43:36.931Z,1000.79
2018-11-13T04:44:36.897Z,1000.77
2018-11-13T04:45:36.882Z,1000.79
2018-11-13T04:46:36.873Z,1000.85
2018-11-13T04:47:36.863Z,1000.85
2018-11-13T04:48:36.881Z,1000.86
2018-11-13T04:49:36.872Z,1000.95
2018-11-13T04:50:36.829Z,1000.98
2018-11-13T04:51:36.995Z,1000.99
2018-11-13T04:52:36.807Z,1001.04
2018-11-13T04:53:36.816Z,1001.07
2018-11-13T04:54:36.803Z,1001.05
2018-11-13T04:55:36.773Z,1001.12
2018-11-13T04:56:36.760Z,1001.09
2018-11-13T04:57:36.747Z,1001.11
2018-11-13T04:58:36.762Z,1001.14
2018-11-13T04:59:36.725Z,1001.17
2018-11-13T05:00:36.717Z,1001.18
2018-11-13T05:01:36.701Z,1001.23
2018-11-13T05:02:36.730Z,1001.29
2018-11-13T05:03:36.704Z,1001.29
2018-11-13T05:04:36.670Z,1001.31
2018-11-13T05:05:36.656Z,1001.32
2018-11-13T05:06:36.649Z,1001.34
2018-11-13T05:07:36.633Z,1001.37
2018-11-13T05:08:36.655Z,1001.43
2018-11-13T05:09:36.611Z,1001.44
2018-11-13T05:10:36.627Z,1001.47
2018-11-13T05:11:36.616Z,1001.46
2018-11-13T05:12:36.579Z,1001.43
2018-11-13T05:13:36.591Z,1001.47
2018-11-13T05:14:36.559Z,1001.47
2018-11-13T05:15:36.545Z,1001.48
2018-11-13T05:16:36.540Z,1001.44
2018-11-13T05:17:36.547Z,1001.43
2018-11-13T05:18:36.516Z,1001.43
2018-11-13T05:19:36.525Z,1001.38
2018-11-13T05:20:36.486Z,1001.41
2018-11-13T05:21:36.483Z,1001.42
2018-11-13T05:22:36.470Z,1001.44
2018-11-13T05:23:36.466Z,1001.42
2018-11-13T05:24:36.469Z,1001.40
2018-11-13T05:25:36.468Z,1001.42
2018-11-13T05:26:36.423Z,1001.38
2018-11-13T05:27:36.418Z,1001.40
2018-11-13T05:28:36.407Z,1001.40
2018-11-13T05:29:36.391Z,1001.42
2018-11-13T05:30:36.405Z,1001.36
2018-11-13T05:31:36.368Z,1001.34
2018-11-13T05:32:36.356Z,1001.32
2018-11-13T05:33:36.366Z,1001.32
2018-11-13T05:34:36.364Z,1001.29
2018-11-13T05:35:36.321Z,1001.30
2018-11-13T05:36:36.336Z,1001.27
2018-11-13T05:37:36.301Z,1001.30
2018-11-13T05:38:36.291Z,1001.27
2018-11-13T05:39:36.278Z,1001.30
2018-11-13T05:40:36.282Z,1001.25
2018-11-13T05:41:36.322Z,1001.22
2018-11-13T05:42:36.261Z,1001.23
2018-11-13T05:43:36.232Z,1001.22
2018-11-13T05:44:36.220Z,1001.23
2018-11-13T05:45:36.238Z,1001.23
2018-11-13T05:46:36.202Z,1001.26
2018-11-13T05:47:36.188Z,1001.30
2018-11-13T05:48:36.222Z,1001.28
2018-11-13T05:49:36.164Z,1001.28
2018-11-13T05:50:36.161Z,1001.33
2018-11-13T05:51:36.145Z,1001.32
2018-11-13T05:52:36.224Z,1001.36
2018-11-13T05:53:36.113Z,1001.39
2018-11-13T05:54:36.111Z,1001.40
2018-11-13T05:55:36.118Z,1001.42
2018-11-13T05:56:36.116Z,1001.41
2018-11-13T05:57:36.074Z,1001.43
2018-11-13T05:58:36.098Z,1001.44
2018-11-13T05:59:36.059Z,1001.50
2018-11-13T06:00:36.048Z,1001.49
2018-11-13T06:01:36.031Z,1001.59
2018-11-13T06:02:36.024Z,1001.57
2018-11-13T06:03:36.039Z,1001.58
2018-11-13T06:04:36.092Z,1001.60
2018-11-13T06:05:35.988Z,1001.66
2018-11-13T06:06:35.976Z,1001.67
2018-11-13T06:07:35.965Z,1001.67
2018-11-13T06:08:36.021Z,1001.70
2018-11-13T06:09:35.950Z,1001.69
2018-11-13T06:10:35.927Z,1001.70
2018-11-13T06:11:35.924Z,1001.73
2018-11-13T06:12:35.919Z,1001.71
2018-11-13T06:13:35.940Z,1001.71
2018-11-13T06:14:35.894Z,1001.73
2018-11-13T06:15:35.874Z,1001.71
2018-11-13T06:16:35.911Z,1001.77
2018-11-13T06:17:35.851Z,1001.81
2018-11-13T06:18:35.842Z,1001.83
2018-11-13T06:19:35.867Z,1001.86
2018-11-13T06:20:35.824Z,1001.92
2018-11-13T06:21:35.843Z,1001.92
2018-11-13T06:22:35.804Z,1001.97
2018-11-13T06:23:35.779Z,1001.96
2018-11-13T06:24:35.771Z,1002.00
2018-11-13T06:25:35.781Z,1002.03
2018-11-13T06:26:35.758Z,1002.06
2018-11-13T06:27:35.739Z,1002.08
2018-11-13T06:28:35.731Z,1002.12
2018-11-13T06:29:35.776Z,1002.13
2018-11-13T06:30:35.743Z,1002.13
2018-11-13T06:31:35.694Z,1002.13
2018-11-13T06:32:35.682Z,1002.13
2018-11-13T06:33:35.678Z,1002.11
2018-11-13T06:34:35.661Z,1002.06
2018-11-13T06:35:35.671Z,1002.12
2018-11-13T06:36:35.666Z,1002.10
2018-11-13T06:37:35.676Z,1002.13
2018-11-13T06:38:35.628Z,1002.17
2018-11-13T06:39:35.609Z,1002.16
2018-11-13T06:40:35.594Z,1002.16
2018-11-13T06:41:35.607Z,1002.13
2018-11-13T06:42:35.573Z,1002.19
2018-11-13T06:43:35.564Z,1002.19
2018-11-13T06:44:35.543Z,1002.16
2018-11-13T06:45:35.543Z,1002.17
2018-11-13T06:46:35.555Z,1002.19
2018-11-13T06:47:35.538Z,1002.19
2018-11-13T06:48:35.503Z,1002.21
2018-11-13T06:49:35.608Z,1002.26
2018-11-13T06:50:35.477Z,1002.24
2018-11-13T06:51:35.475Z,1002.17
2018-11-13T06:52:35.485Z,1002.17
2018-11-13T06:53:35.443Z,1002.18
2018-11-13T06:54:35.494Z,1002.22
2018-11-13T06:55:35.428Z,1002.29
2018-11-13T06:56:35.411Z,1002.30
2018-11-13T06:57:35.408Z,1002.29
2018-11-13T06:58:35.420Z,1002.23
2018-11-13T06:59:35.378Z,1002.30
2018-11-13T07:00:35.379Z,1002.36
2018-11-13T07:01:35.364Z,1002.31
2018-11-13T07:02:35.347Z,1002.26
2018-11-13T07:03:35.370Z,1002.28
2018-11-13T07:04:35.320Z,1002.30
2018-11-13T07:05:35.338Z,1002.31
2018-11-13T07:06:35.297Z,1002.33
2018-11-13T07:07:35.292Z,1002.29
2018-11-13T07:08:35.290Z,1002.27
2018-11-13T07:09:35.272Z,1002.34
2018-11-13T07:10:35.324Z,1002.31
2018-11-13T07:11:35.241Z,1002.31
2018-11-13T07:12:35.223Z,1002.35
2018-11-13T07:13:35.262Z,1002.36
2018-11-13T07:14:35.216Z,1002.37
2018-11-13T07:15:35.196Z,1002.42
2018-11-13T07:16:35.193Z,1002.44
2018-11-13T07:17:35.204Z,1002.47
2018-11-13T07:18:35.254Z,1002.46
2018-11-13T07:19:35.151Z,1002.47
2018-11-13T07:20:35.152Z,1002.44
2018-11-13T07:21:35.160Z,1002.54
2018-11-13T07:22:35.118Z,1002.56
2018-11-13T07:23:35.116Z,1002.63
2018-11-13T07:24:35.093Z,1002.67
2018-11-13T07:25:35.142Z,1002.74
2018-11-13T07:26:35.105Z,1002.77
2018-11-13T07:27:35.169Z,1002.73
2018-11-13T07:28:35.062Z,1002.68
2018-11-13T07:29:35.076Z,1002.72
2018-11-13T07:30:35.029Z,1002.75
2018-11-13T07:31:35.026Z,1002.75
2018-11-13T07:32:35.005Z,1002.78
2018-11-13T07:33:35.045Z,1002.82
2018-11-13T07:34:35.021Z,1002.86
2018-11-13T07:35:35.047Z,1002.89
2018-11-13T07:36:34.968Z,1002.95
2018-11-13T07:37:34.952Z,1002.93
2018-11-13T07:38:34.964Z,1003.04
2018-11-13T07:39:34.958Z,1003.05
2018-11-13T07:40:34.950Z,1003.10
2018-11-13T07:41:34.907Z,1003.12
2018-11-13T07:42:34.900Z,1003.18
2018-11-13T07:43:34.892Z,1003.19
2018-11-13T07:44:34.878Z,1003.22
2018-11-13T07:45:34.883Z,1003.24
2018-11-13T07:46:34.908Z,1003.22
2018-11-13T07:47:34.936Z,1003.15
2018-11-13T07:48:34.833Z,1003.12
2018-11-13T07:49:34.812Z,1003.16
2018-11-13T07:50:34.844Z,1003.12
2018-11-13T07:51:34.795Z,1003.14
2018-11-13T07:52:34.786Z,1003.09
2018-11-13T07:53:34.772Z,1003.06
2018-11-13T07:54:34.761Z,1002.98
2018-11-13T07:55:34.773Z,1003.00
2018-11-13T07:56:34.756Z,1003.09
2018-11-13T07:57:34.726Z,1003.15
2018-11-13T07:58:34.764Z,1003.21
2018-11-13T07:59:34.726Z,1003.21
2018-11-13T08:00:34.695Z,1003.30
2018-11-13T08:01:34.705Z,1003.26
2018-11-13T08:02:34.667Z,1003.22
2018-11-13T08:03:34.682Z,1003.24
2018-11-13T08:04:34.644Z,1003.34
2018-11-13T08:05:34.655Z,1003.32
2018-11-13T08:06:34.672Z,1003.30
2018-11-13T08:07:34.612Z,1003.28
2018-11-13T08:08:34.627Z,1003.30
2018-11-13T08:09:34.589Z,1003.28
2018-11-13T08:10:34.579Z,1003.28
2018-11-13T08:11:34.572Z,1003.32
2018-11-13T08:12:34.592Z,1003.27
2018-11-13T08:13:34.660Z,1003.26
2018-11-13T08:14:34.537Z,1003.28
2018-11-13T08:15:34.579Z,1003.24
2018-11-13T08:16:34.602Z,1003.24
2018-11-13T08:17:34.503Z,1003.24
2018-11-13T08:18:34.510Z,1003.22
2018-11-13T08:19:34.482Z,1003.21
2018-11-13T08:20:34.470Z,1003.26
2018-11-13T08:21:34.479Z,1003.31
2018-11-13T08:22:34.445Z,1003.33
2018-11-13T08:23:34.438Z,1003.31
2018-11-13T08:24:34.419Z,1003.26
2018-11-13T08:25:34.500Z,1003.22
2018-11-13T08:26:34.406Z,1003.32
2018-11-13T08:27:34.445Z,1003.31
2018-11-13T08:28:34.437Z,1003.31
2018-11-13T08:29:34.383Z,1003.30
2018-11-13T08:30:34.353Z,1003.37
2018-11-13T08:31:34.344Z,1003.38
2018-11-13T08:32:34.332Z,1003.47
2018-11-13T08:33:34.349Z,1003.48
2018-11-13T08:34:34.308Z,1003.52
2018-11-13T08:35:34.319Z,1003.48
2018-11-13T08:36:34.310Z,1003.53
2018-11-13T08:37:34.283Z,1003.54
2018-11-13T08:38:34.264Z,1003.52
2018-11-13T08:39:34.257Z,1003.48
2018-11-13T08:40:34.245Z,1003.46
2018-11-13T08:41:34.318Z,1003.37
2018-11-13T08:42:34.220Z,1003.39
2018-11-13T08:43:34.209Z,1003.45
2018-11-13T08:44:34.221Z,1003.45
2018-11-13T08:45:34.186Z,1003.48
2018-11-13T08:46:34.184Z,1003.53
2018-11-13T08:47:34.167Z,1003.48
2018-11-13T08:48:34.160Z,1003.48
2018-11-13T08:49:34.177Z,1003.49
2018-11-13T08:50:34.235Z,1003.55
2018-11-13T08:51:34.151Z,1003.50
2018-11-13T08:52:34.116Z,1003.55
2018-11-13T08:53:34.134Z,1003.58
2018-11-13T08:54:34.110Z,1003.53
2018-11-13T08:55:34.074Z,1003.60
2018-11-13T08:56:34.067Z,1003.60
2018-11-13T08:57:34.053Z,1003.60
2018-11-13T08:58:34.151Z,1003.63
2018-11-13T08:59:34.140Z,1003.61
2018-11-13T09:00:34.032Z,1003.63
2018-11-13T09:01:34.013Z,1003.60
2018-11-13T09:02:33.998Z,1003.60
2018-11-13T09:03:33.987Z,1003.60
2018-11-13T09:04:33.997Z,1003.66
2018-11-13T09:05:33.972Z,1003.67
2018-11-13T09:06:33.953Z,1003.67
2018-11-13T09:07:33.962Z,1003.68
2018-11-13T09:08:33.944Z,1003.70
2018-11-13T09:09:33.959Z,1003.68
2018-11-13T09:10:33.932Z,1003.69
2018-11-13T09:11:33.953Z,1003.74
2018-11-13T09:12:33.994Z,1003.74
2018-11-13T09:13:33.869Z,1003.70
2018-11-13T09:14:33.883Z,1003.73
2018-11-13T09:15:33.881Z,1003.76
2018-11-13T09:16:33.855Z,1003.81
2018-11-13T09:17:33.824Z,1003.83
2018-11-13T09:18:33.823Z,1003.80
2018-11-13T09:19:34.002Z,1003.82
2018-11-13T09:20:33.825Z,1003.87
2018-11-13T09:21:33.792Z,1003.82
2018-11-13T09:22:33.771Z,1003.84
2018-11-13T09:23:33.757Z,1003.85
2018-11-13T09:24:33.769Z,1003.82
2018-11-13T09:25:33.761Z,1003.89
2018-11-13T09:26:33.753Z,1003.86
2018-11-13T09:27:33.726Z,1003.88
2018-11-13T09:28:33.738Z,1003.91
2018-11-13T09:29:33.702Z,1003.93
2018-11-13T09:30:33.873Z,1003.94
2018-11-13T09:31:33.687Z,1003.93
2018-11-13T09:32:33.667Z,1003.94
2018-11-13T09:33:33.736Z,1004.02
2018-11-13T09:34:33.641Z,1004.06
2018-11-13T09:35:33.676Z,1004.02
2018-11-13T09:36:33.631Z,1004.07
2018-11-13T09:37:33.758Z,1004.07
2018-11-13T09:38:33.631Z,1004.04
2018-11-13T09:39:33.593Z,1004.11
2018-11-13T09:40:33.623Z,1004.10
2018-11-13T09:41:33.565Z,1004.12
2018-11-13T09:42:33.568Z,1004.11
2018-11-13T09:43:33.533Z,1004.09
2018-11-13T09:44:33.548Z,1004.10
2018-11-13T09:45:33.540Z,1004.09
2018-11-13T09:46:33.500Z,1004.08
2018-11-13T09:47:33.499Z,1004.14
2018-11-13T09:48:33.476Z,1004.08
2018-11-13T09:49:33.475Z,1004.12
2018-11-13T09:50:33.493Z,1004.11
2018-11-13T09:51:33.461Z,1004.11
2018-11-13T09:52:33.556Z,1004.06
2018-11-13T09:53:33.567Z,1004.06
2018-11-13T09:54:33.408Z,1004.07
2018-11-13T09:55:33.424Z,1004.10
2018-11-13T09:56:33.450Z,1004.04
2018-11-13T09:57:33.415Z,1004.08
2018-11-13T09:58:33.403Z,1004.05
2018-11-13T09:59:33.353Z,1004.05
2018-11-13T10:00:33.602Z,1004.00
2018-11-13T10:01:33.782Z,1004.02
2018-11-13T10:02:34.005Z,1004.01
2018-11-13T10:03:33.951Z,1004.01
2018-11-13T10:04:34.026Z,1003.98
2018-11-13T10:05:33.443Z,1003.97
2018-11-13T10:06:33.273Z,1003.93
2018-11-13T10:07:33.275Z,1003.95
2018-11-13T10:08:33.266Z,1003.93
2018-11-13T10:09:33.267Z,1003.95
2018-11-13T10:10:33.296Z,1003.91
2018-11-13T10:11:33.220Z,1003.90
2018-11-13T10:12:33.215Z,1003.90
2018-11-13T10:13:33.227Z,1003.93
2018-11-13T10:14:33.216Z,1003.91
2018-11-13T10:15:33.173Z,1003.90
2018-11-13T10:16:33.163Z,1003.90
2018-11-13T10:17:33.234Z,1003.89
2018-11-13T10:18:33.142Z,1003.90
2018-11-13T10:19:33.133Z,1003.90
2018-11-13T10:20:33.131Z,1003.90
2018-11-13T10:21:33.142Z,1003.95
2018-11-13T10:22:33.134Z,1003.97
2018-11-13T10:23:33.094Z,1003.98
2018-11-13T10:24:33.079Z,1004.00
2018-11-13T10:25:33.102Z,1004.05
2018-11-13T10:26:33.154Z,1004.07
2018-11-13T10:27:33.091Z,1004.08
2018-11-13T10:28:33.030Z,1004.07
2018-11-13T10:29:33.032Z,1004.08
2018-11-13T10:30:33.021Z,1004.10
2018-11-13T10:31:33.000Z,1004.09
2018-11-13T10:32:32.988Z,1004.02
2018-11-13T10:33:32.998Z,1004.04
2018-11-13T10:34:32.957Z,1004.07
2018-11-13T10:35:32.954Z,1003.95
2018-11-13T10:36:32.967Z,1003.96
2018-11-13T10:37:32.946Z,1004.00
2018-11-13T10:38:32.919Z,1004.07
2018-11-13T10:39:32.904Z,1004.04
2018-11-13T10:40:33.104Z,1004.05
2018-11-13T10:41:32.959Z,1004.02
2018-11-13T10:42:32.881Z,1004.05
2018-11-13T10:43:32.897Z,1004.04
2018-11-13T10:44:32.867Z,1004.06
2018-11-13T10:45:32.832Z,1004.07
2018-11-13T10:46:32.825Z,1004.07
2018-11-13T10:47:32.811Z,1004.08
2018-11-13T10:48:32.820Z,1004.19
2018-11-13T10:49:32.789Z,1004.11
2018-11-13T10:50:32.800Z,1004.07
2018-11-13T10:51:32.769Z,1003.98
2018-11-13T10:52:32.768Z,1004.04
2018-11-13T10:53:32.741Z,1004.13
2018-11-13T10:54:32.770Z,1004.03
2018-11-13T10:55:32.764Z,1004.02
2018-11-13T10:56:32.813Z,1004.06
2018-11-13T10:57:32.726Z,1004.04
2018-11-13T10:58:32.687Z,1004.04
2018-11-13T10:59:32.688Z,1004.21
2018-11-13T11:00:32.717Z,1004.13
2018-11-13T11:01:32.720Z,1004.00
2018-11-13T11:02:32.770Z,1004.02
2018-11-13T11:03:32.630Z,1003.97
2018-11-13T11:04:32.667Z,1004.03
2018-11-13T11:05:32.633Z,1004.06
2018-11-13T11:06:32.642Z,1004.04
2018-11-13T11:07:32.660Z,1004.06
2018-11-13T11:08:32.605Z,1004.02
2018-11-13T11:09:32.566Z,1004.04
2018-11-13T11:10:32.563Z,1004.02
2018-11-13T11:11:32.685Z,1004.07
2018-11-13T11:12:32.561Z,1004.01
2018-11-13T11:13:32.649Z,1004.01
2018-11-13T11:14:32.536Z,1004.09
2018-11-13T11:15:32.493Z,1004.03
2018-11-13T11:16:32.488Z,1004.04
2018-11-13T11:17:32.494Z,1004.13
2018-11-13T11:18:32.512Z,1004.07
2018-11-13T11:19:32.527Z,1004.13
2018-11-13T11:20:32.442Z,1004.19
2018-11-13T11:21:32.432Z,1004.19
2018-11-13T11:22:32.455Z,1004.16
2018-11-13T11:23:32.518Z,1004.13
2018-11-13T11:24:32.410Z,1004.10
2018-11-13T11:25:32.390Z,1004.12
2018-11-13T11:26:32.381Z,1004.15
2018-11-13T11:27:32.411Z,1004.20
2018-11-13T11:28:32.356Z,1004.18
2018-11-13T11:29:32.368Z,1004.18
2018-11-13T11:30:32.336Z,1004.15
2018-11-13T11:31:32.369Z,1004.12
2018-11-13T11:32:32.300Z,1004.07
2018-11-13T11:33:32.415Z,1004.05
2018-11-13T11:34:32.293Z,1004.11
2018-11-13T11:35:32.270Z,1004.15
2018-11-13T11:36:32.252Z,1004.06
2018-11-13T11:37:32.269Z,1004.08
2018-11-13T11:38:32.406Z,1004.08
2018-11-13T11:39:32.218Z,1004.12
2018-11-13T11:40:32.247Z,1004.08
2018-11-13T11:41:32.261Z,1004.02
2018-11-13T11:42:32.259Z,1004.01
2018-11-13T11:43:32.263Z,1003.92
2018-11-13T11:44:32.221Z,1004.03
2018-11-13T11:45:32.245Z,1004.09
2018-11-13T11:46:32.174Z,1004.00
2018-11-13T11:47:32.126Z,1003.91
2018-11-13T11:48:32.610Z,1004.06
2018-11-13T11:49:32.110Z,1004.03
2018-11-13T11:50:32.189Z,1004.02
2018-11-13T11:51:32.158Z,1003.99
2018-11-13T11:52:32.175Z,1004.02
2018-11-13T11:53:32.096Z,1004.10
2018-11-13T11:54:32.225Z,1004.07
2018-11-13T11:55:32.035Z,1004.12
2018-11-13T11:56:32.050Z,1004.11
2018-11-13T11:57:32.018Z,1004.07
2018-11-13T11:58:32.175Z,1004.13
2018-11-13T11:59:31.992Z,1004.16
2018-11-13T12:00:32.047Z,1004.10
2018-11-13T12:01:31.968Z,1004.11
2018-11-13T12:02:31.983Z,1004.13
2018-11-13T12:03:31.996Z,1004.15
2018-11-13T12:04:31.943Z,1004.14
2018-11-13T12:05:31.932Z,1004.18